createdAt,value
2019-02-28T00:01:37.917Z,9.20
2019-02-28T00:04:07.129Z,9.20
2019-02-28T00:06:36.350Z,9.20
2019-02-28T00:09:09.448Z,9.10
2019-02-28T00:11:39.538Z,9.00
2019-02-28T00:14:09.348Z,9.00
2019-02-28T00:16:38.593Z,9.00
2019-02-28T00:19:07.877Z,8.90
2019-02-28T00:21:37.364Z,8.80
2019-02-28T00:24:07.977Z,8.70
2019-02-28T00:26:37.222Z,8.60
2019-02-28T00:29:06.454Z,8.50
2019-02-28T00:31:35.702Z,8.60
2019-02-28T00:34:05.615Z,8.60
2019-02-28T00:36:35.014Z,8.60
2019-02-28T00:39:05.189Z,8.60
2019-02-28T00:41:34.450Z,8.50
2019-02-28T00:44:04.489Z,8.50
2019-02-28T00:46:33.838Z,8.40
2019-02-28T00:49:03.052Z,8.30
2019-02-28T00:51:32.306Z,8.20
2019-02-28T00:54:01.517Z,8.20
2019-02-28T00:56:30.832Z,8.20
2019-02-28T00:59:00.461Z,8.30
2019-02-28T01:01:30.521Z,8.30
2019-02-28T01:03:59.674Z,8.40
2019-02-28T01:06:28.810Z,8.50
2019-02-28T01:08:58.025Z,8.60
2019-02-28T01:11:27.296Z,8.60
2019-02-28T01:13:58.047Z,8.60
2019-02-28T01:16:27.465Z,8.60
2019-02-28T01:18:56.631Z,8.60
2019-02-28T01:21:25.900Z,8.50
2019-02-28T01:23:55.074Z,8.60
2019-02-28T01:26:24.236Z,8.50
2019-02-28T01:28:53.510Z,8.50
2019-02-28T01:31:22.759Z,8.40
2019-02-28T01:33:51.948Z,8.30
2019-02-28T01:36:21.180Z,8.40
2019-02-28T01:38:50.419Z,8.40
2019-02-28T01:41:19.650Z,8.50
2019-02-28T01:43:48.956Z,8.50
2019-02-28T01:46:18.210Z,8.60
2019-02-28T01:48:47.478Z,8.70
2019-02-28T01:51:16.722Z,8.70
2019-02-28T01:53:45.884Z,8.70
2019-02-28T01:56:15.089Z,8.70
2019-02-28T01:58:44.260Z,8.70
2019-02-28T02:01:13.645Z,8.70
2019-02-28T02:03:42.908Z,8.70
2019-02-28T02:06:12.290Z,8.60
2019-02-28T02:08:41.540Z,8.50
2019-02-28T02:11:10.780Z,8.40
2019-02-28T02:13:39.956Z,8.30
2019-02-28T02:16:09.092Z,8.20
2019-02-28T02:18:40.261Z,8.30
2019-02-28T02:21:09.200Z,8.30
2019-02-28T02:23:38.440Z,8.40
2019-02-28T02:26:08.456Z,8.30
2019-02-28T02:28:38.548Z,8.20
2019-02-28T02:31:07.805Z,8.10
2019-02-28T02:33:36.962Z,8.10
2019-02-28T02:36:06.132Z,8.10
2019-02-28T02:38:39.767Z,8.10
2019-02-28T02:41:06.285Z,8.00
2019-02-28T02:43:35.455Z,7.90
2019-02-28T02:46:04.619Z,7.70
2019-02-28T02:48:33.811Z,7.70
2019-02-28T02:51:03.009Z,7.70
2019-02-28T02:53:32.260Z,7.70
2019-02-28T02:56:04.083Z,7.60
2019-02-28T02:58:32.533Z,7.50
2019-02-28T03:01:01.681Z,7.50
2019-02-28T03:03:30.849Z,7.50
2019-02-28T03:06:00.069Z,7.50
2019-02-28T03:08:35.715Z,7.40
2019-02-28T03:11:00.189Z,7.30
2019-02-28T03:13:29.502Z,7.30
2019-02-28T03:15:59.523Z,7.30
2019-02-28T03:18:29.681Z,7.30
2019-02-28T03:20:58.887Z,7.30
2019-02-28T03:23:28.064Z,7.20
2019-02-28T03:26:05.743Z,7.20
2019-02-28T03:28:32.015Z,7.20
2019-02-28T03:31:12.192Z,7.20
2019-02-28T03:33:30.477Z,7.30
2019-02-28T03:35:59.640Z,7.40
2019-02-28T03:38:28.781Z,7.40
2019-02-28T03:40:58.076Z,7.30
2019-02-28T03:43:27.278Z,7.30
2019-02-28T03:45:56.559Z,7.30
2019-02-28T03:48:27.050Z,7.30
2019-02-28T03:50:56.683Z,7.30
2019-02-28T03:53:26.016Z,7.30
2019-02-28T03:55:55.241Z,7.30
2019-02-28T03:58:24.415Z,7.30
2019-02-28T04:00:53.737Z,7.30
2019-02-28T04:03:22.956Z,7.30
2019-02-28T04:05:52.136Z,7.30
2019-02-28T04:08:21.378Z,7.30
2019-02-28T04:10:54.762Z,7.20
2019-02-28T04:13:21.422Z,7.10
2019-02-28T04:16:07.660Z,7.00
2019-02-28T04:18:21.566Z,6.90
2019-02-28T04:20:50.734Z,6.80
2019-02-28T04:23:20.058Z,6.70
2019-02-28T04:25:49.287Z,6.50
2019-02-28T04:28:19.054Z,6.20
2019-02-28T04:30:48.449Z,6.10
2019-02-28T04:33:17.778Z,6.00
2019-02-28T04:35:46.922Z,6.00
2019-02-28T04:38:20.527Z,6.00
2019-02-28T04:40:47.079Z,6.00
2019-02-28T04:43:16.273Z,6.00
2019-02-28T04:45:45.916Z,6.00
2019-02-28T04:48:15.155Z,6.00
2019-02-28T04:50:44.468Z,6.10
2019-02-28T04:53:13.705Z,6.20
2019-02-28T04:55:42.901Z,6.20
2019-02-28T04:58:12.112Z,6.30
2019-02-28T05:00:41.319Z,6.30
2019-02-28T05:03:10.526Z,6.20
2019-02-28T05:05:39.839Z,6.20
2019-02-28T05:08:09.140Z,6.00
2019-02-28T05:10:38.468Z,6.10
2019-02-28T05:13:07.727Z,6.10
2019-02-28T05:15:38.642Z,6.00
2019-02-28T05:18:08.727Z,6.00
2019-02-28T05:20:37.991Z,6.00
2019-02-28T05:23:07.291Z,6.00
2019-02-28T05:25:36.555Z,6.10
2019-02-28T05:28:06.771Z,6.20
2019-02-28T05:30:36.848Z,6.20
2019-02-28T05:33:06.701Z,6.30
2019-02-28T05:35:36.692Z,6.20
2019-02-28T05:38:05.867Z,6.20
2019-02-28T05:40:40.611Z,6.10
2019-02-28T05:43:06.189Z,6.20
2019-02-28T05:45:35.494Z,6.20
2019-02-28T05:48:04.933Z,6.20
2019-02-28T05:50:34.269Z,6.10
2019-02-28T05:53:06.197Z,6.00
2019-02-28T05:55:34.468Z,5.90
2019-02-28T05:58:03.752Z,5.90
2019-02-28T06:00:33.484Z,5.90
2019-02-28T06:03:04.059Z,5.80
2019-02-28T06:05:33.284Z,5.60
2019-02-28T06:08:03.569Z,5.70
2019-02-28T06:10:33.506Z,5.60
2019-02-28T06:13:02.857Z,5.50
2019-02-28T06:15:37.146Z,5.40
2019-02-28T06:18:06.874Z,5.30
2019-02-28T06:20:36.115Z,5.20
2019-02-28T06:23:06.371Z,5.20
2019-02-28T06:25:36.460Z,5.30
2019-02-28T06:28:05.738Z,5.40
2019-02-28T06:30:34.999Z,5.50
2019-02-28T06:33:04.174Z,5.50
2019-02-28T06:35:33.551Z,5.50
2019-02-28T06:38:02.744Z,5.50
2019-02-28T06:40:32.996Z,5.60
2019-02-28T06:43:02.981Z,5.80
2019-02-28T06:45:36.651Z,5.90
2019-02-28T06:48:03.170Z,6.00
2019-02-28T06:50:32.425Z,6.10
2019-02-28T06:53:01.897Z,6.40
2019-02-28T06:55:31.235Z,6.50
2019-02-28T06:58:00.445Z,6.60
2019-02-28T07:00:29.636Z,6.70
2019-02-28T07:03:03.227Z,6.90
2019-02-28T07:05:30.382Z,7.00
2019-02-28T07:07:59.634Z,7.00
2019-02-28T07:10:28.946Z,7.10
2019-02-28T07:13:04.033Z,7.30
2019-02-28T07:15:29.574Z,7.40
2019-02-28T07:17:58.854Z,7.40
2019-02-28T07:20:28.180Z,7.50
2019-02-28T07:22:57.478Z,7.60
2019-02-28T07:25:26.762Z,7.80
2019-02-28T07:27:55.985Z,7.90
2019-02-28T07:30:25.287Z,8.10
2019-02-28T07:32:54.445Z,8.30
2019-02-28T07:35:23.716Z,8.60
2019-02-28T07:37:54.479Z,8.90
2019-02-28T07:40:24.071Z,9.40
2019-02-28T07:42:53.316Z,9.60
2019-02-28T07:45:22.467Z,9.70
2019-02-28T07:47:52.856Z,10.10
2019-02-28T07:50:25.229Z,10.60
2019-02-28T07:52:55.023Z,11.00
2019-02-28T07:55:27.274Z,11.30
2019-02-28T07:57:56.576Z,11.70
2019-02-28T08:00:27.038Z,12.00
2019-02-28T08:02:56.286Z,12.30
2019-02-28T08:05:29.710Z,12.50
2019-02-28T08:07:56.478Z,12.50
2019-02-28T08:10:25.823Z,12.60
2019-02-28T08:12:55.153Z,12.70
2019-02-28T08:15:24.583Z,12.60
2019-02-28T08:17:53.829Z,12.50
2019-02-28T08:20:22.983Z,12.40
2019-02-28T08:22:52.267Z,12.60
2019-02-28T08:25:21.453Z,12.60
2019-02-28T08:27:50.761Z,12.80
2019-02-28T08:30:21.521Z,13.10
2019-02-28T08:32:50.814Z,13.70
2019-02-28T08:35:20.145Z,14.40
2019-02-28T08:37:55.656Z,15.00
2019-02-28T08:40:21.011Z,15.50
2019-02-28T08:42:50.370Z,16.00
2019-02-28T08:45:19.605Z,16.60
2019-02-28T08:47:48.954Z,16.70
2019-02-28T08:50:21.468Z,17.00
2019-02-28T08:52:51.541Z,17.30
2019-02-28T08:55:28.174Z,17.50
2019-02-28T08:57:54.762Z,17.60
2019-02-28T09:00:23.235Z,18.00
2019-02-28T09:02:53.630Z,18.20
2019-02-28T09:05:26.113Z,18.60
2019-02-28T09:07:53.999Z,18.20
2019-02-28T09:10:23.227Z,17.50
2019-02-28T09:12:52.546Z,16.30
2019-02-28T09:15:22.159Z,15.60
2019-02-28T09:17:51.525Z,15.10
2019-02-28T09:20:20.777Z,15.20
2019-02-28T09:22:49.940Z,15.70
2019-02-28T09:25:22.127Z,16.70
2019-02-28T09:27:50.258Z,17.20
2019-02-28T09:30:31.544Z,17.70
2019-02-28T09:33:00.696Z,18.70
2019-02-28T09:35:29.925Z,19.30
2019-02-28T09:38:00.281Z,20.20
2019-02-28T09:40:30.586Z,20.70
2019-02-28T09:42:59.922Z,20.50
2019-02-28T09:45:30.029Z,20.60
2019-02-28T09:48:01.820Z,21.00
2019-02-28T09:50:30.329Z,21.30
2019-02-28T09:52:59.540Z,20.90
2019-02-28T09:55:34.339Z,21.00
2019-02-28T09:57:59.837Z,20.80
2019-02-28T10:00:29.302Z,20.90
2019-02-28T10:03:06.852Z,21.10
2019-02-28T10:05:38.911Z,21.60
2019-02-28T10:08:07.587Z,22.50
2019-02-28T10:10:37.145Z,22.80
2019-02-28T10:13:06.351Z,22.90
2019-02-28T10:15:38.622Z,23.40
2019-02-28T10:18:06.693Z,23.30
2019-02-28T10:20:35.894Z,22.50
2019-02-28T10:23:05.034Z,21.90
2019-02-28T10:25:34.303Z,21.40
2019-02-28T10:28:04.415Z,20.60
2019-02-28T10:30:33.908Z,20.00
2019-02-28T10:33:03.121Z,19.50
2019-02-28T10:35:33.539Z,19.10
2019-02-28T10:38:03.664Z,18.90
2019-02-28T10:40:33.012Z,18.70
2019-02-28T10:43:04.091Z,18.50
2019-02-28T10:45:33.633Z,18.40
2019-02-28T10:48:04.022Z,18.10
2019-02-28T10:50:33.694Z,17.90
2019-02-28T10:53:05.431Z,17.60
2019-02-28T10:55:34.895Z,17.40
2019-02-28T10:58:04.653Z,17.10
2019-02-28T11:00:35.999Z,17.00
2019-02-28T11:03:06.119Z,16.70
2019-02-28T11:05:35.797Z,16.70
2019-02-28T11:08:06.073Z,16.70
2019-02-28T11:10:37.899Z,16.70
2019-02-28T11:13:10.670Z,17.00
2019-02-28T11:15:40.092Z,17.20
2019-02-28T11:18:10.004Z,17.60
2019-02-28T11:20:41.599Z,18.20
2019-02-28T11:23:15.058Z,18.80
2019-02-28T11:25:43.061Z,19.40
2019-02-28T11:28:15.241Z,19.80
2019-02-28T11:30:45.647Z,20.20
2019-02-28T11:33:15.985Z,20.50
2019-02-28T11:35:45.393Z,20.80
2019-02-28T11:38:21.513Z,20.70
2019-02-28T11:40:57.096Z,20.80
2019-02-28T11:43:20.589Z,20.40
2019-02-28T11:45:52.564Z,20.30
2019-02-28T11:48:22.456Z,20.20
2019-02-28T11:50:52.139Z,20.00
2019-02-28T11:53:21.508Z,20.00
2019-02-28T11:55:53.259Z,20.20
2019-02-28T11:58:25.105Z,20.20
2019-02-28T12:00:54.431Z,20.30
2019-02-28T12:03:23.860Z,20.00
2019-02-28T12:05:53.297Z,20.00
2019-02-28T12:08:44.814Z,19.90
2019-02-28T12:11:12.769Z,19.70
2019-02-28T12:13:42.337Z,19.40
2019-02-28T12:16:11.859Z,19.30
2019-02-28T12:18:41.551Z,19.10
2019-02-28T12:21:11.457Z,19.10
2019-02-28T12:23:41.021Z,18.70
2019-02-28T12:26:11.000Z,18.70
2019-02-28T12:28:40.432Z,18.70
2019-02-28T12:31:10.177Z,18.90
2019-02-28T12:33:39.603Z,19.00
2019-02-28T12:36:14.362Z,19.10
2019-02-28T12:38:42.766Z,19.00
2019-02-28T12:41:12.094Z,19.00
2019-02-28T12:43:41.541Z,19.10
2019-02-28T12:46:10.936Z,19.10
2019-02-28T12:48:41.094Z,19.00
2019-02-28T12:51:10.342Z,18.90
2019-02-28T12:53:39.774Z,18.60
2019-02-28T12:56:11.286Z,18.50
2019-02-28T12:58:41.667Z,18.40
2019-02-28T13:01:12.375Z,18.00
2019-02-28T13:03:41.586Z,17.80
2019-02-28T13:06:11.431Z,17.70
2019-02-28T13:08:41.702Z,17.60
2019-02-28T13:11:11.950Z,17.40
2019-02-28T13:13:41.363Z,17.00
2019-02-28T13:16:10.666Z,16.70
2019-02-28T13:18:43.634Z,16.70
2019-02-28T13:21:12.303Z,16.50
2019-02-28T13:23:41.929Z,16.20
2019-02-28T13:26:11.474Z,15.60
2019-02-28T13:28:40.810Z,15.20
2019-02-28T13:31:10.098Z,14.80
2019-02-28T13:33:39.502Z,14.60
2019-02-28T13:36:09.586Z,14.20
2019-02-28T13:38:38.812Z,14.00
2019-02-28T13:41:07.991Z,14.00
2019-02-28T13:43:37.258Z,13.90
2019-02-28T13:46:06.514Z,13.60
2019-02-28T13:48:35.868Z,13.50
2019-02-28T13:51:08.317Z,13.30
2019-02-28T13:53:37.316Z,13.10
2019-02-28T13:56:07.000Z,13.00
2019-02-28T13:58:36.684Z,12.80
2019-02-28T14:01:06.952Z,12.50
2019-02-28T14:03:36.668Z,12.60
2019-02-28T14:06:07.260Z,12.50
2019-02-28T14:08:37.846Z,12.50
2019-02-28T14:11:10.273Z,12.50
2019-02-28T14:13:38.858Z,12.60
2019-02-28T14:16:08.350Z,12.60
2019-02-28T14:18:37.699Z,12.60
2019-02-28T14:21:07.180Z,12.60
2019-02-28T14:23:36.626Z,12.60
2019-02-28T14:26:06.510Z,12.50
2019-02-28T14:28:36.506Z,12.40
2019-02-28T14:31:06.693Z,12.40
2019-02-28T14:33:36.008Z,12.40
2019-02-28T14:36:07.367Z,12.40
2019-02-28T14:38:36.359Z,12.50
2019-02-28T14:41:05.798Z,12.50
2019-02-28T14:43:34.990Z,12.50
2019-02-28T14:46:05.192Z,12.50
2019-02-28T14:48:36.642Z,12.60
2019-02-28T14:51:05.580Z,12.60
2019-02-28T14:53:34.967Z,12.70
2019-02-28T14:56:04.430Z,12.70
2019-02-28T14:58:35.285Z,12.80
2019-02-28T15:01:04.537Z,12.80
2019-02-28T15:03:35.915Z,12.80
2019-02-28T15:06:04.946Z,12.80
2019-02-28T15:08:34.365Z,12.80
2019-02-28T15:11:06.444Z,12.80
2019-02-28T15:13:34.865Z,12.80
2019-02-28T15:16:04.167Z,12.90
2019-02-28T15:18:33.493Z,12.90
2019-02-28T15:21:04.555Z,13.00
2019-02-28T15:23:35.085Z,13.00
2019-02-28T15:26:04.585Z,13.00
2019-02-28T15:28:33.989Z,13.00
2019-02-28T15:31:05.706Z,13.00
2019-02-28T15:33:34.431Z,13.00
2019-02-28T15:36:03.892Z,13.00
2019-02-28T15:38:33.176Z,13.00
2019-02-28T15:41:02.825Z,13.00
2019-02-28T15:43:31.954Z,13.00
2019-02-28T15:46:01.224Z,13.00
2019-02-28T15:48:31.392Z,13.00
2019-02-28T15:51:03.391Z,13.00
2019-02-28T15:53:32.523Z,13.00
2019-02-28T15:56:01.848Z,12.90
2019-02-28T15:58:31.178Z,12.90
2019-02-28T16:01:00.429Z,12.90
2019-02-28T16:03:29.712Z,12.90
2019-02-28T16:05:58.938Z,12.90
2019-02-28T16:08:28.513Z,12.90
2019-02-28T16:10:57.991Z,12.90
2019-02-28T16:13:27.292Z,12.90
2019-02-28T16:16:01.326Z,12.90
2019-02-28T16:18:30.534Z,12.90
2019-02-28T16:20:59.806Z,12.90
2019-02-28T16:23:31.062Z,12.90
2019-02-28T16:26:02.506Z,12.90
2019-02-28T16:28:31.716Z,12.90
2019-02-28T16:31:03.308Z,12.90
2019-02-28T16:33:32.136Z,12.90
2019-02-28T16:36:01.447Z,12.80
2019-02-28T16:38:30.630Z,12.80
2019-02-28T16:41:00.794Z,12.80
2019-02-28T16:43:30.741Z,12.90
2019-02-28T16:46:00.039Z,12.80
2019-02-28T16:48:29.289Z,12.80
2019-02-28T16:50:58.507Z,12.80
2019-02-28T16:53:27.883Z,12.80
2019-02-28T16:55:57.139Z,12.80
2019-02-28T16:58:26.288Z,12.70
2019-02-28T17:00:55.500Z,12.70
2019-02-28T17:03:24.845Z,12.70
2019-02-28T17:05:54.218Z,12.60
2019-02-28T17:08:24.122Z,12.50
2019-02-28T17:10:53.410Z,12.50
2019-02-28T17:13:47.503Z,12.50
2019-02-28T17:16:37.063Z,12.50
2019-02-28T17:19:08.504Z,12.50
2019-02-28T17:21:38.004Z,12.50
2019-02-28T17:24:08.692Z,12.40
2019-02-28T17:27:06.346Z,12.40
2019-02-28T17:29:57.641Z,12.50
2019-02-28T17:32:28.016Z,12.40
2019-02-28T17:34:58.993Z,12.40
2019-02-28T17:37:28.886Z,12.40
2019-02-28T17:39:58.109Z,12.30
2019-02-28T17:42:27.334Z,12.30
2019-02-28T17:45:16.185Z,12.30
2019-02-28T17:48:52.617Z,12.30
2019-02-28T17:51:46.998Z,12.30
2019-02-28T17:55:09.810Z,12.40
2019-02-28T17:58:12.847Z,12.40
2019-02-28T18:01:06.512Z,12.40
2019-02-28T18:04:12.326Z,12.40
2019-02-28T18:07:36.721Z,12.40
2019-02-28T18:10:46.414Z,12.30
2019-02-28T18:13:59.390Z,12.30
2019-02-28T18:17:04.609Z,12.30
2019-02-28T18:19:45.753Z,12.30
2019-02-28T18:22:53.332Z,12.30
2019-02-28T18:25:51.676Z,12.30
2019-02-28T18:28:54.833Z,12.30
2019-02-28T18:31:23.783Z,12.30
2019-02-28T18:34:20.574Z,12.30
2019-02-28T18:36:50.746Z,12.30
2019-02-28T18:39:20.404Z,12.30
2019-02-28T18:41:50.799Z,12.30
2019-02-28T18:44:20.162Z,12.20
2019-02-28T18:46:49.487Z,12.30
2019-02-28T18:49:21.374Z,12.30
2019-02-28T18:51:50.787Z,12.30
2019-02-28T18:54:20.636Z,12.40
2019-02-28T18:56:50.532Z,12.50
2019-02-28T18:59:23.292Z,12.50
2019-02-28T19:01:52.790Z,12.40
2019-02-28T19:04:22.145Z,12.40
2019-02-28T19:06:51.427Z,12.50
2019-02-28T19:09:24.648Z,12.50
2019-02-28T19:11:55.698Z,12.50
2019-02-28T19:14:25.025Z,12.40
2019-02-28T19:16:54.468Z,12.40
2019-02-28T19:19:23.890Z,12.30
2019-02-28T19:21:53.512Z,12.10
2019-02-28T19:24:25.628Z,12.10
2019-02-28T19:26:55.220Z,12.20
2019-02-28T19:29:24.685Z,12.20
2019-02-28T19:31:58.226Z,12.10
2019-02-28T19:34:27.734Z,12.10
2019-02-28T19:36:57.188Z,12.00
2019-02-28T19:39:29.881Z,12.00
2019-02-28T19:42:00.313Z,11.90
2019-02-28T19:44:29.620Z,11.90
2019-02-28T19:46:59.753Z,11.80
2019-02-28T19:49:29.144Z,11.80
2019-02-28T19:52:01.300Z,11.70
2019-02-28T19:54:30.645Z,11.60
2019-02-28T19:57:00.104Z,11.70
2019-02-28T19:59:29.459Z,11.50
2019-02-28T20:01:58.850Z,11.50
2019-02-28T20:04:28.254Z,11.50
2019-02-28T20:06:57.485Z,11.50
2019-02-28T20:09:27.194Z,11.50
2019-02-28T20:11:56.663Z,11.60
2019-02-28T20:14:25.982Z,11.60
2019-02-28T20:16:55.400Z,11.50
2019-02-28T20:19:24.856Z,11.60
2019-02-28T20:21:54.270Z,11.60
2019-02-28T20:24:23.903Z,11.70
2019-02-28T20:26:53.159Z,11.70
2019-02-28T20:29:22.376Z,11.70
2019-02-28T20:31:51.748Z,11.70
2019-02-28T20:34:23.884Z,11.70
2019-02-28T20:36:53.454Z,11.70
2019-02-28T20:39:23.020Z,11.70
2019-02-28T20:41:52.305Z,11.80
2019-02-28T20:44:21.613Z,11.70
2019-02-28T20:46:50.965Z,11.70
2019-02-28T20:49:20.225Z,11.70
2019-02-28T20:51:55.065Z,11.80
2019-02-28T20:54:21.005Z,11.80
2019-02-28T20:56:50.374Z,11.70
2019-02-28T20:59:19.641Z,11.70
2019-02-28T21:01:49.217Z,11.70
2019-02-28T21:04:19.152Z,11.70
2019-02-28T21:06:48.486Z,11.50
2019-02-28T21:09:19.477Z,11.40
2019-02-28T21:11:48.761Z,11.40
2019-02-28T21:14:18.264Z,11.40
2019-02-28T21:16:47.974Z,11.40
2019-02-28T21:19:17.670Z,11.40
2019-02-28T21:21:48.014Z,11.40
2019-02-28T21:24:17.251Z,11.40
2019-02-28T21:26:46.542Z,11.40
2019-02-28T21:29:21.518Z,11.30
2019-02-28T21:31:50.989Z,11.30
2019-02-28T21:34:20.482Z,11.30
2019-02-28T21:36:52.084Z,11.30
2019-02-28T21:39:22.168Z,11.30
2019-02-28T21:41:52.205Z,11.30
2019-02-28T21:44:21.704Z,11.30
2019-02-28T21:46:53.636Z,11.40
2019-02-28T21:49:23.214Z,11.30
2019-02-28T21:51:52.540Z,11.30
2019-02-28T21:54:21.805Z,11.20
2019-02-28T21:56:51.073Z,11.20
2019-02-28T21:59:20.351Z,11.10
2019-02-28T22:01:49.574Z,11.00
2019-02-28T22:04:18.862Z,11.00
2019-02-28T22:06:48.066Z,11.00
2019-02-28T22:09:17.297Z,11.00
2019-02-28T22:11:49.617Z,10.90
2019-02-28T22:14:18.883Z,10.90
2019-02-28T22:16:48.164Z,10.90
2019-02-28T22:19:17.417Z,10.80
2019-02-28T22:21:46.603Z,10.80
2019-02-28T22:24:15.854Z,10.70
2019-02-28T22:26:45.108Z,10.70
2019-02-28T22:29:14.298Z,10.80
2019-02-28T22:31:59.596Z,10.80
2019-02-28T22:34:57.550Z,10.80
2019-02-28T22:37:26.899Z,10.90
2019-02-28T22:39:56.159Z,10.90
2019-02-28T22:42:26.240Z,11.00
2019-02-28T22:44:55.545Z,10.90
2019-02-28T22:47:24.888Z,10.90
2019-02-28T22:49:54.735Z,10.90
2019-02-28T22:52:24.914Z,11.00
2019-02-28T22:54:54.238Z,11.00
2019-02-28T22:57:23.549Z,11.00
2019-02-28T22:59:52.832Z,11.00
2019-02-28T23:02:22.507Z,10.90
2019-02-28T23:04:51.801Z,10.90
2019-02-28T23:07:21.072Z,10.90
2019-02-28T23:09:50.685Z,10.90
2019-02-28T23:12:19.961Z,11.00
2019-02-28T23:14:49.273Z,11.00
2019-02-28T23:17:18.737Z,11.00
2019-02-28T23:19:48.243Z,11.00
2019-02-28T23:22:17.543Z,11.00
2019-02-28T23:24:46.925Z,11.00
2019-02-28T23:27:22.553Z,11.00
2019-02-28T23:30:21.700Z,11.10
2019-02-28T23:33:02.981Z,11.00
2019-02-28T23:35:40.846Z,11.00
2019-02-28T23:38:10.161Z,11.00
2019-02-28T23:40:39.317Z,11.00
2019-02-28T23:43:08.730Z,11.00
2019-02-28T23:45:37.982Z,11.00
2019-02-28T23:48:07.239Z,10.90
2019-02-28T23:50:36.579Z,10.90
2019-02-28T23:53:05.814Z,10.90
2019-02-28T23:55:35.138Z,10.90
2019-02-28T23:58:04.567Z,10.90
